DTTJ/DJE METAR and TAF weather

Enter ICAO airport designator
Station Type Date Time Source
DTTJ METAR 2018/07/21 04:00 UTC NOAA

DTTJ 210400Z 13004KT 8000 NSC 26/24 Q1012


Station Type Date Time Source
DTTJ Decoded METAR 2018/07/21 04:00 UTC NOAA

Djerba Mellita, Tunisia (DTTJ) 33-52N 010-46E 4M
Jul 21, 2018 - 12:00 AM EDT / 2018.07.21 0400 UTC
Wind: from the SE (130 degrees) at 5 MPH (4 KT):0
Visibility: 4 mile(s):0
Temperature: 78 F (26 C)
Dew Point: 75 F (24 C)
Relative Humidity: 88%
Pressure (altimeter): 29.88 in. Hg (1012 hPa)
ob: DTTJ 210400Z 13004KT 8000 NSC 26/24 Q1012
cycle: 4

Station Type Date Time Source
DTTJ TAF 2018/07/21 00:04 UTC NOAA

TAF DTTJ 202304Z 2100/2124 13010KT CAVOK


Example: see airport list